Laniel, Canada
Current Conditions -  °F | °C
As of 1:00 AM on Thursday 23 Oct 2014 (Local Time) from CYYB Reporting Station
Clear Clear  
Wind Chill: 36°   Ceiling: Unl
Heat Index: 41°   Visibility: 9mi
Dew Point: 30°   Wind: 7mph
Humidity: 65%   Direction: 70°ENE
Pressure: 30.26"   Gusts: NA
Location:  47.03°N, 79.27°W
Report Text: CYYB 230500Z AUTO 07006KT 9SM CLR 05/M01 A3026 RMK SLP258
Loading
Personal Weather Stations






























Interactive Weather Map
Tropical Storm Tracking
New forecast layout! Learn more

10-Day Weather Forecast

Advertisements
Track Severe Weather on mobile